Time;durP1;ratioP1;P1;durP2;ratioP2;P2;SDS_P1;SDS_P2;PMS_P1;PMS_P2;Temp;Humidity;BMP_temperature;BMP_pressure;BME280_temperature;BME280_humidity;BME280_pressure;Samples;Min_cycle;Max_cycle;Signal;HPM_P1;HPM_P2
2023/05/25 00:02:14;;;;;;;21.58;8.50;;;;;;;8.78;100.00;102472.41;5030980;28;20417;-72
2023/05/25 00:04:40;;;;;;;19.45;8.32;;;;;;;8.85;100.00;102469.56;5032319;28;20473;-71
2023/05/25 00:07:05;;;;;;;16.45;8.25;;;;;;;8.78;100.00;102469.78;5031775;28;20030;-72
2023/05/25 00:09:31;;;;;;;29.70;9.18;;;;;;;8.84;100.00;102462.59;5031755;28;20099;-71
2023/05/25 00:11:58;;;;;;;21.25;9.05;;;;;;;8.85;100.00;102469.56;5031041;28;20037;-73
2023/05/25 00:14:24;;;;;;;19.50;8.20;;;;;;;8.85;100.00;102469.56;5032344;28;20426;-72
2023/05/25 00:16:50;;;;;;;20.65;9.27;;;;;;;8.91;100.00;102458.81;5032549;28;20060;-72
2023/05/25 00:19:17;;;;;;;19.30;8.95;;;;;;;8.94;100.00;102469.19;5032922;28;20040;-72
2023/05/25 00:21:44;;;;;;;23.95;8.85;;;;;;;8.95;100.00;102461.22;5032135;28;20024;-72
2023/05/25 00:24:10;;;;;;;20.17;9.15;;;;;;;8.96;100.00;102465.56;5030562;28;20539;-72
2023/05/25 00:26:39;;;;;;;19.23;8.30;;;;;;;8.97;100.00;102471.66;5024554;28;20025;-72
2023/05/25 00:29:04;;;;;;;17.50;9.35;;;;;;;8.99;100.00;102469.84;5030239;28;20049;-72
2023/05/25 00:31:34;;;;;;;20.15;8.75;;;;;;;8.98;100.00;102466.34;5033500;28;20385;-72
2023/05/25 00:34:02;;;;;;;22.17;8.95;;;;;;;8.96;100.00;102477.84;5032915;28;20067;-72
2023/05/25 00:36:27;;;;;;;23.08;8.82;;;;;;;8.97;100.00;102469.03;5032389;28;20032;-72
2023/05/25 00:38:53;;;;;;;17.67;8.25;;;;;;;8.96;100.00;102469.97;5032755;28;20367;-72
2023/05/25 00:41:19;;;;;;;22.13;8.52;;;;;;;8.96;100.00;102477.84;5013885;28;20332;-73
2023/05/25 00:43:51;;;;;;;19.65;8.52;;;;;;;8.95;100.00;102481.38;5013596;28;20032;-73
2023/05/25 00:46:16;;;;;;;20.13;8.52;;;;;;;8.97;100.00;102479.53;5031802;28;20041;-73
2023/05/25 00:48:42;;;;;;;15.98;8.15;;;;;;;8.98;100.00;102481.25;5031771;28;20028;-73
2023/05/25 00:51:09;;;;;;;16.55;7.95;;;;;;;8.97;100.00;102474.28;5013532;28;20116;-73
2023/05/25 00:53:36;;;;;;;15.13;7.72;;;;;;;8.96;100.00;102470.81;5014308;28;20163;-72
2023/05/25 00:56:07;;;;;;;18.02;7.95;;;;;;;8.96;100.00;102467.34;5031567;28;20119;-72
2023/05/25 00:58:34;;;;;;;20.98;8.57;;;;;;;8.99;100.00;102475.09;5030829;28;20504;-72
2023/05/25 01:01:05;;;;;;;17.52;7.68;;;;;;;8.97;100.00;102479.53;5030919;28;20030;-73
2023/05/25 01:03:36;;;;;;;21.52;8.25;;;;;;;8.97;100.00;102476.91;5013829;28;20072;-73
2023/05/25 01:06:06;;;;;;;19.67;8.48;;;;;;;8.96;100.00;102472.59;5030137;28;20130;-73
2023/05/25 01:08:33;;;;;;;19.50;8.05;;;;;;;8.95;100.00;102478.75;5014026;28;20021;-73
2023/05/25 01:11:03;;;;;;;17.23;7.65;;;;;;;8.98;100.00;102481.25;5031586;28;20028;-73
2023/05/25 01:13:30;;;;;;;13.98;7.45;;;;;;;8.98;100.00;102476.84;5024582;28;20068;-72
2023/05/25 01:15:57;;;;;;;18.02;7.55;;;;;;;8.98;100.00;102478.63;5032022;28;20025;-72
2023/05/25 01:18:22;;;;;;;12.50;7.10;;;;;;;9.00;100.00;102479.41;5031336;28;20025;-72
2023/05/25 01:21:18;;;;;;;15.43;7.35;;;;;;;9.02;100.00;102485.47;5032308;28;20037;-72
2023/05/25 01:24:07;;;;;;;14.85;7.75;;;;;;;9.00;100.00;102482.03;5014156;28;20559;-72
2023/05/25 01:26:38;;;;;;;17.17;7.75;;;;;;;8.96;100.00;102490.97;5029528;28;20021;-72
2023/05/25 01:29:03;;;;;;;15.93;7.68;;;;;;;8.94;100.00;102490.19;5013531;28;20017;-73
2023/05/25 01:31:33;;;;;;;16.67;7.88;;;;;;;8.92;100.00;102497.25;5032403;28;20501;-73
2023/05/25 01:34:03;;;;;;;15.43;7.25;;;;;;;8.90;100.00;102501.72;5031321;28;20064;-72
2023/05/25 01:36:28;;;;;;;15.20;7.43;;;;;;;8.86;100.00;102502.75;5032184;28;20062;-72
2023/05/25 01:38:54;;;;;;;18.83;7.28;;;;;;;8.83;100.00;102505.50;5032328;28;20021;-75
2023/05/25 01:41:20;;;;;;;16.20;7.53;;;;;;;8.81;100.00;102502.09;5030591;28;20029;-73
2023/05/25 01:43:45;;;;;;;16.20;7.65;;;;;;;8.76;100.00;102508.34;5031657;28;20033;-73
2023/05/25 01:46:17;;;;;;;13.85;7.53;;;;;;;8.69;100.00;102500.78;5029124;28;20029;-72
2023/05/25 01:48:52;;;;;;;13.90;7.05;;;;;;;8.71;100.00;102498.97;5030793;28;20055;-73
2023/05/25 01:51:41;;;;;;;15.20;7.47;;;;;;;8.64;100.00;102500.13;5030519;28;20018;-73
2023/05/25 01:54:12;;;;;;;15.25;6.82;;;;;;;8.62;100.00;102508.06;5029380;28;20249;-73
2023/05/25 01:56:41;;;;;;;15.27;7.10;;;;;;;8.53;100.00;102507.56;5012238;28;20124;-72
2023/05/25 01:59:08;;;;;;;13.13;6.90;;;;;;;8.55;100.00;102510.97;5030229;28;20021;-73
2023/05/25 02:01:35;;;;;;;13.10;6.65;;;;;;;8.48;100.00;102516.47;5027175;28;20087;-72
2023/05/25 02:04:01;;;;;;;14.77;6.88;;;;;;;8.46;100.00;102514.81;5029874;28;20053;-72
2023/05/25 02:06:27;;;;;;;13.95;7.32;;;;;;;8.35;100.00;102511.72;5029991;28;20061;-72
2023/05/25 02:08:52;;;;;;;12.82;6.90;;;;;;;8.37;100.00;102515.16;5029055;28;20501;-72
2023/05/25 02:11:17;;;;;;;11.32;7.25;;;;;;;8.37;100.00;102520.38;5029576;28;20021;-72
2023/05/25 02:13:43;;;;;;;17.50;7.80;;;;;;;8.30;100.00;102508.41;5029163;28;20440;-72
2023/05/25 02:16:08;;;;;;;12.68;7.22;;;;;;;8.32;100.00;102502.19;5027183;28;20410;-72
2023/05/25 02:18:34;;;;;;;12.23;6.75;;;;;;;8.26;100.00;102501.56;5030199;28;20132;-72
2023/05/25 02:21:05;;;;;;;13.18;6.68;;;;;;;8.23;100.00;102512.16;5030733;28;20036;-72
2023/05/25 02:23:30;;;;;;;13.38;6.65;;;;;;;8.24;100.00;102509.47;5028746;28;20060;-72
2023/05/25 02:25:56;;;;;;;13.18;7.10;;;;;;;8.14;100.00;102508.97;5030649;28;20063;-72
2023/05/25 02:28:22;;;;;;;12.45;7.28;;;;;;;8.13;100.00;102506.41;5012912;28;20553;-72
2023/05/25 02:30:47;;;;;;;16.00;7.40;;;;;;;8.03;100.00;102505.06;5030022;28;20401;-72
2023/05/25 02:33:13;;;;;;;17.63;8.10;;;;;;;8.05;100.00;102506.72;5028519;28;20029;-72
2023/05/25 02:35:38;;;;;;;14.27;7.60;;;;;;;8.06;100.00;102504.94;5028807;28;20032;-72
2023/05/25 02:38:03;;;;;;;13.25;6.85;;;;;;;7.98;100.00;102502.56;5012347;28;20598;-72
2023/05/25 02:40:31;;;;;;;10.35;6.63;;;;;;;8.02;100.00;102504.19;5012852;28;20025;-72
2023/05/25 02:42:57;;;;;;;12.73;7.60;;;;;;;7.97;100.00;102506.09;5011103;28;20029;-73
2023/05/25 02:45:22;;;;;;;13.27;7.57;;;;;;;8.01;100.00;102512.97;5011356;28;20047;-72
2023/05/25 02:47:50;;;;;;;15.88;7.68;;;;;;;7.99;100.00;102514.75;5029358;28;20662;-72
2023/05/25 02:50:16;;;;;;;13.52;7.45;;;;;;;7.93;100.00;102519.38;5027797;28;20060;-72
2023/05/25 02:52:41;;;;;;;16.77;7.63;;;;;;;7.92;100.00;102517.66;5011650;28;20021;-72
2023/05/25 02:55:09;;;;;;;12.82;7.60;;;;;;;7.91;100.00;102514.19;5028617;28;20503;-72
2023/05/25 02:57:35;;;;;;;14.10;7.03;;;;;;;7.81;100.00;102510.19;5028539;28;20057;-75
2023/05/25 03:00:01;;;;;;;12.38;7.68;;;;;;;7.81;100.00;102504.97;5028986;28;20021;-75
2023/05/25 03:02:27;;;;;;;14.70;7.82;;;;;;;7.75;100.00;102505.19;5011702;28;20112;-75
2023/05/25 03:04:53;;;;;;;12.18;7.78;;;;;;;7.69;100.00;102503.63;5028093;28;20037;-72
2023/05/25 03:07:19;;;;;;;12.82;7.57;;;;;;;7.70;100.00;102507.97;5029064;28;20034;-72
2023/05/25 03:09:45;;;;;;;14.05;8.20;;;;;;;7.66;100.00;102502.91;5027937;28;20029;-72
2023/05/25 03:12:11;;;;;;;13.18;8.68;;;;;;;7.66;100.00;102510.75;5009880;28;20047;-73
2023/05/25 03:14:36;;;;;;;17.02;9.15;;;;;;;7.62;100.00;102510.00;5011288;28;20401;-72
2023/05/25 03:17:02;;;;;;;13.80;8.85;;;;;;;7.62;100.00;102519.63;5029721;28;20025;-72
2023/05/25 03:19:27;;;;;;;13.27;8.93;;;;;;;7.59;100.00;102527.56;5029454;28;20025;-72
2023/05/25 03:21:53;;;;;;;12.88;9.13;;;;;;;7.54;100.00;102523.34;5030009;28;20470;-72
2023/05/25 03:24:18;;;;;;;21.98;9.98;;;;;;;7.54;100.00;102523.34;5028134;28;20090;-72
2023/05/25 03:26:43;;;;;;;16.23;10.45;;;;;;;7.48;100.00;102523.56;5029090;28;20542;-72
2023/05/25 03:29:09;;;;;;;16.73;10.10;;;;;;;7.51;100.00;102539.16;5029860;28;20037;-72
2023/05/25 03:31:35;;;;;;;13.45;10.15;;;;;;;7.49;100.00;102537.50;5029100;28;20022;-75
2023/05/25 03:34:02;;;;;;;14.90;10.52;;;;;;;7.48;100.00;102543.66;5028786;28;20112;-72
2023/05/25 03:36:29;;;;;;;16.52;10.82;;;;;;;7.41;100.00;102537.78;5030127;28;20053;-72
2023/05/25 03:38:55;;;;;;;18.50;11.02;;;;;;;7.39;100.00;102539.59;5027868;28;20108;-72
2023/05/25 03:41:20;;;;;;;15.52;10.88;;;;;;;7.40;100.00;102543.91;5029942;28;20120;-72
2023/05/25 03:43:46;;;;;;;18.77;11.02;;;;;;;7.43;100.00;102550.81;5029244;28;20482;-74
2023/05/25 03:46:11;;;;;;;16.63;11.25;;;;;;;7.38;100.00;102547.50;5026598;28;20497;-72
2023/05/25 03:48:37;;;;;;;19.45;12.48;;;;;;;7.44;100.00;102548.13;5029090;28;20025;-72
2023/05/25 03:51:02;;;;;;;19.27;13.90;;;;;;;7.45;100.00;102555.09;5028215;28;20052;-73
2023/05/25 03:53:28;;;;;;;18.80;13.27;;;;;;;7.45;100.00;102560.31;5028354;28;20171;-73
2023/05/25 03:55:54;;;;;;;21.45;14.20;;;;;;;7.41;100.00;102550.88;5028677;28;20026;-72
2023/05/25 03:58:19;;;;;;;19.73;13.77;;;;;;;7.43;100.00;102559.53;5028504;28;20026;-73
2023/05/25 04:00:47;;;;;;;19.38;12.90;;;;;;;7.44;100.00;102563.00;5027970;28;20022;-72
2023/05/25 04:03:13;;;;;;;22.02;12.65;;;;;;;7.49;100.00;102564.56;5026593;28;20025;-73
2023/05/25 04:05:38;;;;;;;19.75;13.93;;;;;;;7.47;100.00;102569.00;5028829;28;20045;-72
2023/05/25 04:08:05;;;;;;;21.92;14.95;;;;;;;7.66;100.00;102565.75;5026604;28;20658;-72
2023/05/25 04:10:31;;;;;;;20.45;14.38;;;;;;;7.80;100.00;102563.50;5028824;28;20100;-72
2023/05/25 04:12:56;;;;;;;24.15;14.88;;;;;;;7.96;100.00;102555.97;5027101;28;20120;-73
2023/05/25 04:15:25;;;;;;;21.92;13.60;;;;;;;8.15;100.00;102563.13;5027268;28;20052;-72
2023/05/25 04:17:51;;;;;;;23.77;14.20;;;;;;;8.16;100.00;102564.84;5010452;28;20028;-72
2023/05/25 04:20:16;;;;;;;21.70;13.55;;;;;;;8.68;100.00;102570.78;5011009;28;20037;-72
2023/05/25 04:22:44;;;;;;;18.10;13.07;;;;;;;9.09;100.00;102569.16;5028817;28;20036;-72
2023/05/25 04:25:09;;;;;;;18.65;11.80;;;;;;;9.51;100.00;102564.84;5029122;28;20030;-72
2023/05/25 04:27:35;;;;;;;16.63;11.52;;;;;;;9.52;98.77;102558.66;5033081;28;20381;-72
2023/05/25 04:30:01;;;;;;;17.38;11.25;;;;;;;9.86;97.66;102558.94;5031886;28;20033;-72
2023/05/25 04:32:28;;;;;;;19.50;10.93;;;;;;;9.60;97.56;102567.94;5031772;28;20014;-72
2023/05/25 04:34:57;;;;;;;15.02;10.73;;;;;;;9.24;98.43;102572.97;5032580;28;20029;-72
2023/05/25 04:37:26;;;;;;;20.05;10.52;;;;;;;9.19;99.34;102580.16;5032255;28;20025;-72
2023/05/25 04:39:52;;;;;;;15.85;10.35;;;;;;;9.03;100.00;102579.91;5032926;28;20048;-72
2023/05/25 04:42:18;;;;;;;18.92;10.52;;;;;;;8.99;100.00;102572.22;5030879;28;20036;-72
2023/05/25 04:44:43;;;;;;;17.45;10.20;;;;;;;8.91;100.00;102576.94;5031969;28;20479;-72
2023/05/25 04:47:09;;;;;;;15.50;9.80;;;;;;;8.91;100.00;102579.56;5013163;28;20048;-72
2023/05/25 04:49:35;;;;;;;17.55;9.82;;;;;;;8.96;100.00;102582.84;5013471;28;20043;-72
2023/05/25 04:52:00;;;;;;;17.10;9.55;;;;;;;8.93;100.00;102577.72;5031081;28;20509;-72
2023/05/25 04:54:25;;;;;;;19.85;11.23;;;;;;;8.88;100.00;102577.91;5031377;28;20028;-72
2023/05/25 04:56:52;;;;;;;18.02;9.82;;;;;;;8.86;100.00;102581.50;5031195;28;20477;-72
2023/05/25 04:59:17;;;;;;;16.27;9.70;;;;;;;8.93;100.00;102582.97;5030721;28;20025;-72
2023/05/25 05:01:43;;;;;;;20.58;10.30;;;;;;;8.89;100.00;102586.63;5031765;28;20029;-73
2023/05/25 05:04:09;;;;;;;21.95;10.77;;;;;;;8.88;100.00;102591.03;5029089;28;20460;-72
2023/05/25 05:06:35;;;;;;;19.35;11.30;;;;;;;8.91;100.00;102585.66;5031373;28;20041;-72
2023/05/25 05:09:00;;;;;;;18.63;10.52;;;;;;;8.96;100.00;102595.97;5013175;28;20509;-73
2023/05/25 05:11:27;;;;;;;18.55;10.70;;;;;;;8.98;100.00;102591.50;5013745;28;20021;-74
2023/05/25 05:13:53;;;;;;;22.75;11.00;;;;;;;9.02;100.00;102598.34;5013593;28;20537;-74
2023/05/25 05:16:18;;;;;;;19.83;9.38;;;;;;;9.02;100.00;102600.97;5031482;28;20045;-76
2023/05/25 05:18:44;;;;;;;19.55;10.50;;;;;;;9.06;100.00;102590.28;5032584;28;20026;-76
2023/05/25 05:21:10;;;;;;;20.77;10.07;;;;;;;9.11;100.00;102592.72;5031411;28;20032;-74
2023/05/25 05:23:35;;;;;;;20.90;9.52;;;;;;;9.12;100.00;102594.44;5031711;28;20386;-74
2023/05/25 05:26:03;;;;;;;20.70;9.82;;;;;;;9.18;100.00;102598.59;5030731;28;20014;-74
2023/05/25 05:28:29;;;;;;;23.02;10.30;;;;;;;9.18;100.00;102609.94;5032075;28;20026;-73
2023/05/25 05:30:54;;;;;;;19.50;10.10;;;;;;;9.26;100.00;102601.78;5030333;28;20105;-73
2023/05/25 05:33:22;;;;;;;18.23;9.95;;;;;;;9.28;100.00;102608.69;5030810;28;20032;-74
2023/05/25 05:35:51;;;;;;;22.65;10.38;;;;;;;9.36;100.00;102618.88;5031437;28;20493;-74
2023/05/25 05:38:17;;;;;;;20.10;9.98;;;;;;;9.41;100.00;102617.78;5031543;28;20079;-73
2023/05/25 05:40:43;;;;;;;18.75;9.85;;;;;;;9.49;100.00;102620.06;5030885;28;20112;-74
2023/05/25 05:43:13;;;;;;;20.73;9.27;;;;;;;9.55;100.00;102613.72;5030360;28;20156;-74
2023/05/25 05:45:39;;;;;;;18.08;9.07;;;;;;;9.62;100.00;102618.69;5031454;28;20037;-73
2023/05/25 05:48:08;;;;;;;18.05;8.95;;;;;;;9.74;100.00;102625.19;5012978;28;20389;-74
2023/05/25 05:50:37;;;;;;;18.85;9.88;;;;;;;9.76;100.00;102620.72;5029978;28;20253;-73
2023/05/25 05:53:03;;;;;;;19.05;9.52;;;;;;;9.81;100.00;102631.88;5011666;28;20032;-76
2023/05/25 05:55:28;;;;;;;18.05;9.85;;;;;;;9.88;100.00;102633.34;5030772;28;20029;-74
2023/05/25 05:57:54;;;;;;;16.95;9.05;;;;;;;9.98;100.00;102639.91;5030243;28;20397;-73
2023/05/25 06:00:19;;;;;;;15.63;9.02;;;;;;;10.05;100.00;102645.78;5029206;28;20509;-74
2023/05/25 06:02:45;;;;;;;16.88;8.77;;;;;;;10.14;100.00;102641.91;5030448;28;20030;-74
2023/05/25 06:05:13;;;;;;;20.98;9.50;;;;;;;10.24;100.00;102640.59;5029595;28;20387;-74
2023/05/25 06:07:39;;;;;;;20.10;8.15;;;;;;;10.32;100.00;102634.06;5029481;28;20036;-74
2023/05/25 06:10:05;;;;;;;14.95;7.40;;;;;;;10.41;100.00;102643.38;5029708;28;20029;-74
2023/05/25 06:12:30;;;;;;;18.63;8.00;;;;;;;10.50;100.00;102648.22;5012212;28;20382;-74
2023/05/25 06:14:56;;;;;;;18.35;7.88;;;;;;;10.60;100.00;102638.97;5028020;28;20033;-73
2023/05/25 06:17:22;;;;;;;22.65;7.50;;;;;;;10.66;98.76;102641.31;5011719;28;20052;-76
2023/05/25 06:19:50;;;;;;;16.00;7.57;;;;;;;10.77;99.10;102643.44;5028732;28;20017;-72
2023/05/25 06:22:16;;;;;;;16.08;7.30;;;;;;;10.85;98.63;102645.75;5028105;28;20025;-72
2023/05/25 06:24:41;;;;;;;15.32;7.68;;;;;;;10.91;98.43;102648.97;5029792;28;20425;-72
2023/05/25 06:27:07;;;;;;;17.92;7.65;;;;;;;10.97;98.93;102648.66;5029013;28;20060;-73
2023/05/25 06:29:33;;;;;;;15.57;7.78;;;;;;;11.03;98.60;102652.78;5010973;28;20030;-72
2023/05/25 06:31:58;;;;;;;15.38;7.32;;;;;;;11.07;97.32;102648.22;5011793;28;20032;-73
2023/05/25 06:34:24;;;;;;;14.13;6.97;;;;;;;11.12;97.16;102649.72;5011652;28;20029;-73
2023/05/25 06:36:49;;;;;;;15.45;7.20;;;;;;;11.24;96.00;102667.59;5028914;28;20029;-73
2023/05/25 06:39:15;;;;;;;16.30;7.13;;;;;;;11.28;95.08;102668.31;5029423;28;20053;-73
2023/05/25 06:41:40;;;;;;;16.77;7.03;;;;;;;11.36;94.57;102660.88;5029897;28;20413;-72
2023/05/25 06:44:06;;;;;;;17.45;6.95;;;;;;;11.46;94.30;102667.41;5029832;28;20387;-72
2023/05/25 06:46:32;;;;;;;13.13;7.85;;;;;;;11.53;93.96;102667.94;5012195;28;20034;-73
2023/05/25 06:49:00;;;;;;;12.50;6.72;;;;;;;11.57;93.45;102669.50;5029259;28;20025;-73
2023/05/25 06:51:26;;;;;;;15.82;8.45;;;;;;;11.61;91.97;102676.38;5028963;28;20010;-73
2023/05/25 06:53:55;;;;;;;13.00;6.72;;;;;;;11.63;91.31;102676.28;5030812;28;20481;-73
2023/05/25 06:56:21;;;;;;;14.85;6.75;;;;;;;11.65;91.63;102666.53;5011378;28;20030;-73
2023/05/25 06:58:51;;;;;;;9.63;6.60;;;;;;;11.73;91.24;102670.47;5030325;28;20037;-72
2023/05/25 07:01:16;;;;;;;15.45;6.65;;;;;;;11.90;91.50;102670.50;5029688;28;20489;-72
2023/05/25 07:03:42;;;;;;;14.85;6.68;;;;;;;12.02;89.56;102669.06;5029772;28;20029;-73
2023/05/25 07:06:08;;;;;;;12.57;6.82;;;;;;;12.13;88.67;102676.41;5028254;28;20473;-72
2023/05/25 07:08:33;;;;;;;15.27;6.75;;;;;;;12.20;87.15;102677.81;5028794;28;20497;-73
2023/05/25 07:11:02;;;;;;;12.38;6.28;;;;;;;12.38;87.18;102678.63;5029792;28;20026;-72
2023/05/25 07:13:27;;;;;;;13.18;6.75;;;;;;;12.62;85.00;102681.78;5030305;28;20100;-72
2023/05/25 07:15:52;;;;;;;13.48;6.20;;;;;;;12.88;84.64;102683.88;5012202;28;20128;-72
2023/05/25 07:18:18;;;;;;;14.65;6.53;;;;;;;13.20;83.12;102678.63;5027864;28;20034;-72
2023/05/25 07:20:43;;;;;;;15.27;6.32;;;;;;;13.49;82.84;102686.63;5029128;28;20363;-72
2023/05/25 07:23:10;;;;;;;12.52;5.97;;;;;;;13.78;79.73;102682.34;5028303;28;20087;-73
2023/05/25 07:25:39;;;;;;;16.10;6.63;;;;;;;13.91;79.38;102687.75;5028349;28;20510;-73
2023/05/25 07:28:05;;;;;;;14.20;5.88;;;;;;;14.27;78.17;102682.06;5028715;28;20080;-72
2023/05/25 07:30:30;;;;;;;15.23;6.20;;;;;;;14.39;75.78;102683.13;5028896;28;20026;-73
2023/05/25 07:32:57;;;;;;;18.23;6.53;;;;;;;14.62;73.67;102679.97;5028008;28;20018;-73
2023/05/25 07:35:23;;;;;;;13.75;7.40;;;;;;;14.71;73.67;102689.13;5028832;28;20025;-72
2023/05/25 07:38:03;;;;;;;9.73;5.18;;;;;;;14.81;73.43;102694.72;5010947;28;20025;-73
2023/05/25 07:40:28;;;;;;;13.45;5.95;;;;;;;14.66;71.46;102692.06;5011139;28;20028;-73
2023/05/25 07:42:54;;;;;;;14.30;5.75;;;;;;;14.56;71.83;102688.28;5029199;28;20393;-73
2023/05/25 07:45:20;;;;;;;13.65;6.03;;;;;;;14.83;72.40;102683.09;5028435;28;20087;-72
2023/05/25 07:47:46;;;;;;;12.90;5.80;;;;;;;14.96;70.76;102689.31;5010806;28;20095;-73
2023/05/25 07:50:13;;;;;;;10.43;5.97;;;;;;;15.08;69.29;102689.47;5027900;28;20037;-73
2023/05/25 07:52:38;;;;;;;9.75;5.10;;;;;;;15.03;68.98;102687.97;5028784;28;20053;-73
2023/05/25 07:55:07;;;;;;;12.05;5.55;;;;;;;15.05;68.63;102694.03;5029668;28;20104;-73
2023/05/25 07:57:33;;;;;;;11.40;4.90;;;;;;;15.17;68.72;102692.41;5029482;28;20028;-73
2023/05/25 07:59:59;;;;;;;9.93;4.72;;;;;;;15.48;67.49;102691.28;5030829;28;20378;-73
2023/05/25 08:02:24;;;;;;;10.10;5.43;;;;;;;15.48;65.88;102695.72;5031157;28;20041;-73
2023/05/25 08:04:51;;;;;;;12.35;5.25;;;;;;;15.35;66.07;102693.03;5033026;28;20139;-73
2023/05/25 08:07:19;;;;;;;14.93;5.50;;;;;;;15.46;66.01;102694.97;5031045;28;20065;-73
2023/05/25 08:09:45;;;;;;;10.75;5.55;;;;;;;15.77;66.48;102699.16;5032203;28;20107;-73
2023/05/25 08:12:10;;;;;;;17.30;5.60;;;;;;;15.86;64.93;102693.25;5032154;28;20057;-73
2023/05/25 08:14:35;;;;;;;13.27;5.70;;;;;;;16.24;64.69;102695.97;5031473;28;20028;-73
2023/05/25 08:17:01;;;;;;;11.85;5.57;;;;;;;16.49;64.20;102695.13;5033134;28;20024;-73
2023/05/25 08:19:30;;;;;;;18.55;5.40;;;;;;;16.85;62.25;102697.91;5032624;28;20429;-73
2023/05/25 08:21:55;;;;;;;12.63;5.40;;;;;;;16.80;60.58;102696.50;5031504;28;20021;-73
2023/05/25 08:24:21;;;;;;;10.70;4.93;;;;;;;16.95;60.71;102703.41;5030642;28;20032;-73
2023/05/25 08:26:47;;;;;;;12.93;4.93;;;;;;;16.99;59.71;102710.22;5032122;28;20040;-73
2023/05/25 08:29:13;;;;;;;11.98;4.93;;;;;;;17.26;60.92;102702.06;5030909;28;20367;-73
2023/05/25 08:31:40;;;;;;;11.15;4.80;;;;;;;17.28;58.82;102700.16;5031988;28;20031;-73
2023/05/25 08:34:06;;;;;;;11.43;5.25;;;;;;;17.42;58.52;102699.97;5013686;28;20029;-73
2023/05/25 08:36:33;;;;;;;9.93;4.47;;;;;;;17.50;57.74;102694.94;5031840;28;20026;-73
2023/05/25 08:38:58;;;;;;;11.23;4.35;;;;;;;17.61;57.68;102701.25;5031870;28;20093;-73
2023/05/25 08:41:24;;;;;;;10.93;4.45;;;;;;;17.92;57.84;102711.38;5030778;28;20209;-73
2023/05/25 08:43:49;;;;;;;12.07;4.78;;;;;;;17.92;55.92;102711.38;5030148;28;20029;-73
2023/05/25 08:46:28;;;;;;;10.18;4.28;;;;;;;18.05;55.71;102705.97;5013837;28;20029;-73
2023/05/25 08:49:02;;;;;;;9.77;4.07;;;;;;;18.08;54.78;102706.59;5030004;28;20065;-73
2023/05/25 08:51:28;;;;;;;7.13;4.00;;;;;;;17.79;55.80;102710.59;5031622;28;20394;-73
2023/05/25 08:54:00;;;;;;;13.80;4.65;;;;;;;17.89;57.04;102716.94;5032615;28;20091;-73
2023/05/25 08:56:29;;;;;;;10.75;4.38;;;;;;;17.59;56.07;102716.50;5031887;28;20025;-73
2023/05/25 08:59:24;;;;;;;11.95;4.50;;;;;;;17.27;59.07;102719.72;5032987;28;20040;-73
2023/05/25 09:01:55;;;;;;;10.68;4.30;;;;;;;16.76;58.91;102717.16;5032704;28;20427;-72
2023/05/25 09:04:22;;;;;;;9.77;4.07;;;;;;;16.87;58.42;102724.38;5032023;28;20029;-73
2023/05/25 09:06:47;;;;;;;10.52;4.85;;;;;;;16.66;57.89;102718.75;5032063;28;20037;-74
2023/05/25 09:09:13;;;;;;;10.35;4.53;;;;;;;16.58;58.95;102713.09;5031968;28;20033;-72
2023/05/25 09:11:40;;;;;;;11.77;4.25;;;;;;;16.37;59.14;102717.22;5030580;28;20024;-73
2023/05/25 09:14:07;;;;;;;14.38;5.00;;;;;;;16.23;59.47;102707.53;5031836;28;20036;-73
2023/05/25 09:16:32;;;;;;;13.68;4.88;;;;;;;16.20;60.76;102716.56;5031033;28;20478;-73
2023/05/25 09:18:58;;;;;;;9.32;4.32;;;;;;;16.32;60.09;102722.00;5031582;28;20163;-73
2023/05/25 09:21:24;;;;;;;13.65;4.90;;;;;;;15.97;60.23;102727.88;5030753;28;20025;-73
2023/05/25 09:23:50;;;;;;;10.27;4.72;;;;;;;15.81;60.76;102724.56;5031764;28;20029;-72
2023/05/25 09:26:18;;;;;;;9.55;4.63;;;;;;;15.88;61.92;102721.38;5030782;28;20022;-73
2023/05/25 09:28:48;;;;;;;18.50;4.95;;;;;;;15.94;63.52;102728.09;5031004;28;20374;-73
2023/05/25 09:31:14;;;;;;;11.57;4.43;;;;;;;15.89;63.81;102727.53;5028249;28;20033;-73
2023/05/25 09:33:40;;;;;;;16.20;4.68;;;;;;;15.66;63.48;102724.63;5030592;28;20045;-73
2023/05/25 09:36:06;;;;;;;21.98;5.32;;;;;;;15.49;63.67;102724.81;5031171;28;20386;-73
2023/05/25 09:38:32;;;;;;;16.45;4.63;;;;;;;15.41;64.54;102720.97;5029952;28;20032;-73
2023/05/25 09:40:58;;;;;;;10.82;4.47;;;;;;;15.31;64.30;102731.31;5031129;28;20022;-73
2023/05/25 09:43:24;;;;;;;15.15;4.97;;;;;;;15.29;65.00;102728.75;5028972;28;20025;-73
2023/05/25 09:45:53;;;;;;;15.98;5.43;;;;;;;15.30;64.96;102729.63;5030280;28;20031;-72
2023/05/25 09:48:20;;;;;;;12.88;4.93;;;;;;;15.36;64.54;102729.22;5012327;28;20497;-73
2023/05/25 09:50:46;;;;;;;12.75;4.53;;;;;;;15.51;64.84;102725.56;5030526;28;20096;-73
2023/05/25 09:53:11;;;;;;;13.50;3.92;;;;;;;15.65;63.56;102725.56;5012588;28;20116;-72
2023/05/25 09:55:37;;;;;;;12.63;3.70;;;;;;;15.61;61.95;102734.69;5030408;28;20136;-72
2023/05/25 09:58:03;;;;;;;13.57;4.63;;;;;;;15.47;62.78;102732.03;5012646;28;20025;-72
2023/05/25 10:00:28;;;;;;;16.33;4.47;;;;;;;15.38;63.53;102732.63;5030560;28;20032;-72
2023/05/25 10:02:54;;;;;;;13.07;4.20;;;;;;;15.41;64.07;102735.06;5031171;28;20026;-72
2023/05/25 10:05:19;;;;;;;12.98;4.93;;;;;;;15.43;65.02;102743.78;5023916;28;20058;-72
2023/05/25 10:07:45;;;;;;;15.10;5.18;;;;;;;15.54;65.03;102735.97;5010639;28;20120;-73
2023/05/25 10:10:15;;;;;;;23.02;5.60;;;;;;;15.61;66.02;102739.16;4993299;28;20029;-72
2023/05/25 10:12:42;;;;;;;16.75;5.90;;;;;;;15.70;65.51;102727.06;4992938;28;20045;-73
2023/05/25 10:15:13;;;;;;;13.45;5.32;;;;;;;15.75;66.10;102736.44;4993252;28;20032;-73
2023/05/25 10:17:47;;;;;;;14.15;4.90;;;;;;;15.59;65.56;102739.22;5010136;28;20064;-72
2023/05/25 10:20:14;;;;;;;11.05;4.55;;;;;;;15.80;65.68;102730.81;5009112;28;20412;-72
2023/05/25 10:23:04;;;;;;;11.95;4.47;;;;;;;15.93;65.41;102739.66;5010475;28;20021;-73
2023/05/25 10:25:40;;;;;;;14.57;4.63;;;;;;;16.01;64.17;102737.38;4992127;28;20525;-73
2023/05/25 10:28:28;;;;;;;11.77;4.50;;;;;;;16.09;62.97;102745.66;4991572;28;20026;-73
2023/05/25 10:30:58;;;;;;;15.93;4.70;;;;;;;15.89;61.88;102743.47;5009942;28;20105;-73
2023/05/25 10:33:23;;;;;;;14.23;4.45;;;;;;;15.86;61.93;102738.38;5008209;28;20021;-73
2023/05/25 10:35:49;;;;;;;14.10;4.85;;;;;;;15.90;61.63;102751.34;5009052;28;20056;-73
2023/05/25 10:38:18;;;;;;;9.65;4.38;;;;;;;16.06;61.71;102743.22;5009880;28;20053;-73
2023/05/25 10:40:51;;;;;;;13.82;4.75;;;;;;;16.21;61.45;102746.63;4992352;28;20538;-72
2023/05/25 10:43:18;;;;;;;13.65;4.60;;;;;;;16.18;60.27;102742.38;5009940;28;20030;-72
2023/05/25 10:45:43;;;;;;;13.27;4.82;;;;;;;16.27;60.72;102738.25;5009722;28;20033;-72
2023/05/25 10:48:09;;;;;;;14.13;4.22;;;;;;;16.32;61.37;102743.25;5008725;28;20034;-73
2023/05/25 10:50:35;;;;;;;14.70;4.45;;;;;;;16.28;60.71;102746.13;5010136;28;20033;-73
2023/05/25 10:53:11;;;;;;;11.32;4.20;;;;;;;16.22;59.31;102751.84;5008991;28;20030;-72
2023/05/25 10:55:51;;;;;;;10.32;4.00;;;;;;;16.21;58.50;102744.84;5009649;28;20482;-73
2023/05/25 10:58:18;;;;;;;11.45;4.13;;;;;;;16.25;57.64;102748.97;5010428;28;20036;-73
2023/05/25 11:00:57;;;;;;;13.13;4.00;;;;;;;16.32;58.57;102740.59;5010548;28;20025;-72
2023/05/25 11:03:42;;;;;;;10.73;4.13;;;;;;;16.52;58.86;102743.59;5009192;28;20033;-75
2023/05/25 11:06:09;;;;;;;12.30;4.10;;;;;;;16.51;57.89;102730.44;5009963;28;20117;-73
2023/05/25 11:08:54;;;;;;;13.88;4.35;;;;;;;16.62;59.41;102738.50;5010650;28;20025;-72
2023/05/25 11:11:19;;;;;;;12.40;4.00;;;;;;;16.63;57.53;102732.22;5009650;28;20030;-73
2023/05/25 11:13:51;;;;;;;12.35;4.20;;;;;;;16.77;57.32;102734.78;4993250;28;20026;-73
2023/05/25 11:16:23;;;;;;;7.60;3.90;;;;;;;17.39;57.01;102726.81;5008068;28;20034;-72
2023/05/25 11:18:52;;;;;;;10.80;4.10;;;;;;;17.84;55.92;102737.72;5009278;28;20193;-73